createdAt,value
2019-02-28T00:01:54.225Z,6.27
2019-02-28T00:04:23.735Z,6.10
2019-02-28T00:06:53.207Z,6.50
2019-02-28T00:09:25.696Z,6.30
2019-02-28T00:11:53.657Z,7.17
2019-02-28T00:14:22.904Z,7.67
2019-02-28T00:16:52.259Z,6.60
2019-02-28T00:19:24.035Z,6.50
2019-02-28T00:21:53.227Z,7.20
2019-02-28T00:24:22.643Z,6.83
2019-02-28T00:26:51.954Z,6.13
2019-02-28T00:29:21.461Z,7.20
2019-02-28T00:31:50.944Z,7.10
2019-02-28T00:34:20.393Z,7.40
2019-02-28T00:36:50.435Z,7.83
2019-02-28T00:39:20.633Z,7.07
2019-02-28T00:41:49.947Z,7.80
2019-02-28T00:44:19.565Z,7.90
2019-02-28T00:46:49.977Z,8.13
2019-02-28T00:49:19.209Z,7.63
2019-02-28T00:51:48.963Z,7.80
2019-02-28T00:54:18.233Z,8.80
2019-02-28T00:56:51.578Z,8.60
2019-02-28T00:59:18.600Z,7.90
2019-02-28T01:01:48.093Z,7.67
2019-02-28T01:04:19.621Z,7.47
2019-02-28T01:06:48.952Z,8.40
2019-02-28T01:09:18.435Z,8.70
2019-02-28T01:11:47.997Z,7.90
2019-02-28T01:14:17.452Z,9.37
2019-02-28T01:16:46.910Z,8.20
2019-02-28T01:19:16.211Z,9.13
2019-02-28T01:21:45.501Z,9.00
2019-02-28T01:24:14.815Z,8.60
2019-02-28T01:26:46.771Z,8.90
2019-02-28T01:29:15.081Z,8.13
2019-02-28T01:31:44.424Z,9.07
2019-02-28T01:34:13.958Z,9.07
2019-02-28T01:36:45.907Z,9.63
2019-02-28T01:39:14.558Z,8.70
2019-02-28T01:41:49.635Z,9.10
2019-02-28T01:44:19.869Z,9.37
2019-02-28T01:46:49.397Z,9.30
2019-02-28T01:49:18.931Z,9.33
2019-02-28T01:51:48.405Z,9.10
2019-02-28T01:54:17.706Z,9.00
2019-02-28T01:56:47.034Z,10.23
2019-02-28T01:59:16.592Z,10.50
2019-02-28T02:01:46.017Z,10.73
2019-02-28T02:04:15.740Z,10.90
2019-02-28T02:06:45.031Z,10.60
2019-02-28T02:09:14.786Z,10.43
2019-02-28T02:11:45.297Z,9.27
2019-02-28T02:14:14.766Z,10.30
2019-02-28T02:16:44.122Z,10.90
2019-02-28T02:19:17.530Z,9.70
2019-02-28T02:21:44.567Z,10.20
2019-02-28T02:24:14.024Z,11.10
2019-02-28T02:26:45.233Z,10.77
2019-02-28T02:29:14.487Z,10.60
2019-02-28T02:31:45.448Z,10.47
2019-02-28T02:34:14.948Z,10.90
2019-02-28T02:36:44.459Z,11.20
2019-02-28T02:39:17.561Z,10.83
2019-02-28T02:41:45.293Z,10.63
2019-02-28T02:44:14.598Z,10.80
2019-02-28T02:46:44.007Z,11.57
2019-02-28T02:49:18.557Z,11.67
2019-02-28T02:51:49.122Z,11.17
2019-02-28T02:54:19.942Z,10.97
2019-02-28T02:56:47.564Z,10.90
2019-02-28T02:59:16.996Z,11.30
2019-02-28T03:01:46.736Z,11.70
2019-02-28T03:04:21.438Z,11.33
2019-02-28T03:06:47.367Z,11.67
2019-02-28T03:09:16.803Z,11.00
2019-02-28T03:11:46.154Z,12.37
2019-02-28T03:14:17.545Z,12.40
2019-02-28T03:16:47.222Z,11.73
2019-02-28T03:19:16.693Z,12.33
2019-02-28T03:21:51.634Z,12.10
2019-02-28T03:24:17.342Z,12.20
2019-02-28T03:26:49.581Z,12.77
2019-02-28T03:29:18.989Z,11.97
2019-02-28T03:31:55.318Z,12.47
2019-02-28T03:34:19.449Z,12.40
2019-02-28T03:36:55.276Z,12.10
2019-02-28T03:39:24.071Z,12.67
2019-02-28T03:41:52.842Z,13.30
2019-02-28T03:44:22.024Z,12.30
2019-02-28T03:46:52.259Z,13.10
2019-02-28T03:49:21.609Z,12.93
2019-02-28T03:51:51.111Z,12.93
2019-02-28T03:54:28.811Z,13.53
2019-02-28T03:56:57.910Z,12.60
2019-02-28T03:59:27.391Z,12.47
2019-02-28T04:01:56.712Z,12.90
2019-02-28T04:04:26.152Z,13.83
2019-02-28T04:06:55.531Z,12.90
2019-02-28T04:09:24.991Z,13.90
2019-02-28T04:11:54.278Z,13.43
2019-02-28T04:14:23.583Z,14.37
2019-02-28T04:16:54.530Z,14.27
2019-02-28T04:19:24.091Z,14.00
2019-02-28T04:21:53.612Z,14.03
2019-02-28T04:24:22.879Z,14.13
2019-02-28T04:26:52.385Z,13.70
2019-02-28T04:29:21.881Z,14.70
2019-02-28T04:31:52.441Z,13.73
2019-02-28T04:34:21.916Z,14.20
2019-02-28T04:36:51.969Z,14.20
2019-02-28T04:39:22.776Z,14.23
2019-02-28T04:41:52.478Z,13.80
2019-02-28T04:44:25.913Z,15.10
2019-02-28T04:46:55.397Z,14.70
2019-02-28T04:49:24.831Z,14.47
2019-02-28T04:51:54.201Z,14.70
2019-02-28T04:54:24.579Z,15.43
2019-02-28T04:56:54.819Z,14.63
2019-02-28T04:59:25.880Z,14.40
2019-02-28T05:01:55.277Z,15.17
2019-02-28T05:04:24.888Z,14.47
2019-02-28T05:06:55.132Z,15.50
2019-02-28T05:09:25.439Z,15.87
2019-02-28T05:11:54.942Z,14.50
2019-02-28T05:14:24.472Z,15.73
2019-02-28T05:16:53.692Z,16.20
2019-02-28T05:19:23.022Z,15.50
2019-02-28T05:21:53.572Z,15.90
2019-02-28T05:24:23.279Z,16.27
2019-02-28T05:26:57.240Z,17.70
2019-02-28T05:29:28.216Z,17.20
2019-02-28T05:31:58.162Z,14.90
2019-02-28T05:34:28.911Z,17.00
2019-02-28T05:36:58.425Z,17.57
2019-02-28T05:39:28.203Z,16.40
2019-02-28T05:42:00.372Z,16.70
2019-02-28T05:44:29.709Z,17.73
2019-02-28T05:46:59.137Z,17.20
2019-02-28T05:49:28.519Z,17.03
2019-02-28T05:51:58.979Z,16.50
2019-02-28T05:54:29.003Z,18.63
2019-02-28T05:56:58.344Z,18.47
2019-02-28T05:59:27.777Z,18.80
2019-02-28T06:01:58.165Z,18.03
2019-02-28T06:04:27.735Z,17.10
2019-02-28T06:06:57.175Z,16.80
2019-02-28T06:09:26.655Z,19.30
2019-02-28T06:11:55.984Z,18.93
2019-02-28T06:14:27.780Z,18.37
2019-02-28T06:16:57.374Z,18.83
2019-02-28T06:19:26.826Z,18.83
2019-02-28T06:21:56.427Z,17.87
2019-02-28T06:24:27.133Z,19.50
2019-02-28T06:26:57.025Z,18.57
2019-02-28T06:29:27.341Z,18.70
2019-02-28T06:31:56.719Z,19.50
2019-02-28T06:34:26.225Z,19.27
2019-02-28T06:37:18.931Z,20.07
2019-02-28T06:39:48.423Z,18.90
2019-02-28T06:42:17.848Z,19.70
2019-02-28T06:44:47.172Z,18.90
2019-02-28T06:47:16.699Z,20.10
2019-02-28T06:49:46.222Z,20.20
2019-02-28T06:52:15.750Z,20.20
2019-02-28T06:54:45.214Z,19.93
2019-02-28T06:57:14.660Z,20.97
2019-02-28T06:59:43.926Z,20.97
2019-02-28T07:02:13.861Z,20.93
2019-02-28T07:04:45.528Z,21.30
2019-02-28T07:07:14.176Z,20.30
2019-02-28T07:09:43.693Z,20.40
2019-02-28T07:12:13.336Z,20.90
2019-02-28T07:14:48.066Z,22.70
2019-02-28T07:17:13.979Z,20.17
2019-02-28T07:19:43.328Z,22.17
2019-02-28T07:22:19.384Z,22.83
2019-02-28T07:24:44.794Z,21.80
2019-02-28T07:27:14.596Z,21.87
2019-02-28T07:29:44.018Z,21.40
2019-02-28T07:32:13.530Z,22.17
2019-02-28T07:34:43.017Z,21.00
2019-02-28T07:37:12.579Z,21.70
2019-02-28T07:39:42.067Z,21.90
2019-02-28T07:42:13.038Z,22.30
2019-02-28T07:44:42.414Z,22.53
2019-02-28T07:47:17.150Z,23.70
2019-02-28T07:49:43.891Z,23.90
2019-02-28T07:52:13.759Z,22.50
2019-02-28T07:54:43.197Z,21.30
2019-02-28T07:57:16.945Z,24.13
2019-02-28T07:59:43.809Z,21.83
2019-02-28T08:02:13.254Z,24.33
2019-02-28T08:04:43.703Z,23.70
2019-02-28T08:07:14.711Z,23.80
2019-02-28T08:09:44.235Z,23.67
2019-02-28T08:12:13.628Z,21.37
2019-02-28T08:14:43.555Z,25.43
2019-02-28T08:17:14.333Z,23.73
2019-02-28T08:19:43.719Z,23.80
2019-02-28T08:22:13.058Z,24.90
2019-02-28T08:24:42.582Z,23.53
2019-02-28T08:27:12.062Z,24.73
2019-02-28T08:29:44.726Z,24.60
2019-02-28T08:32:13.729Z,24.50
2019-02-28T08:34:43.229Z,25.10
2019-02-28T08:37:12.658Z,24.70
2019-02-28T08:39:42.416Z,25.00
2019-02-28T08:42:12.581Z,23.63
2019-02-28T08:44:42.099Z,23.37
2019-02-28T08:47:11.624Z,23.97
2019-02-28T08:49:44.684Z,23.67
2019-02-28T08:52:12.254Z,23.93
2019-02-28T08:54:41.701Z,25.07
2019-02-28T08:57:12.931Z,24.90
2019-02-28T08:59:42.145Z,22.80
2019-02-28T09:02:14.508Z,25.23
2019-02-28T09:04:44.869Z,24.23
2019-02-28T09:07:15.192Z,24.13
2019-02-28T09:09:45.315Z,23.63
2019-02-28T09:12:15.649Z,24.40
2019-02-28T09:14:45.052Z,25.13
2019-02-28T09:17:15.513Z,25.40
2019-02-28T09:19:45.691Z,24.77
2019-02-28T09:22:15.122Z,26.03
2019-02-28T09:24:46.776Z,23.70
2019-02-28T09:27:16.230Z,25.30
2019-02-28T09:29:45.665Z,25.83
2019-02-28T09:32:15.119Z,23.97
2019-02-28T09:34:44.424Z,24.40
2019-02-28T09:37:13.732Z,25.90
2019-02-28T09:39:43.067Z,24.73
2019-02-28T09:42:15.684Z,24.73
2019-02-28T09:44:44.165Z,25.33
2019-02-28T09:47:13.623Z,25.00
2019-02-28T09:49:44.233Z,23.70
2019-02-28T09:52:14.144Z,25.57
2019-02-28T09:54:43.555Z,24.57
2019-02-28T09:57:15.457Z,23.93
2019-02-28T09:59:44.595Z,25.70
2019-02-28T10:02:13.999Z,25.40
2019-02-28T10:04:43.429Z,25.97
2019-02-28T10:07:12.943Z,25.47
2019-02-28T10:09:44.238Z,23.67
2019-02-28T10:12:13.513Z,24.57
2019-02-28T10:14:43.959Z,24.27
2019-02-28T10:17:13.364Z,23.63
2019-02-28T10:19:45.738Z,25.53
2019-02-28T10:22:14.020Z,25.60
2019-02-28T10:24:43.466Z,23.07
2019-02-28T10:27:12.701Z,25.40
2019-02-28T10:29:42.721Z,24.03
2019-02-28T10:32:13.084Z,23.80
2019-02-28T10:34:42.518Z,25.60
2019-02-28T10:37:11.901Z,24.20
2019-02-28T10:39:43.140Z,22.87
2019-02-28T10:42:13.245Z,23.90
2019-02-28T10:44:42.554Z,24.70
2019-02-28T10:47:11.978Z,24.57
2019-02-28T10:49:41.417Z,25.50
2019-02-28T10:52:10.909Z,24.00
2019-02-28T10:54:40.320Z,23.70
2019-02-28T10:57:09.898Z,23.13
2019-02-28T10:59:39.086Z,24.77
2019-02-28T11:02:08.603Z,23.40
2019-02-28T11:04:42.796Z,24.80
2019-02-28T11:07:09.589Z,24.97
2019-02-28T11:09:39.263Z,21.90
2019-02-28T11:12:08.598Z,23.60
2019-02-28T11:14:38.846Z,25.43
2019-02-28T11:17:13.650Z,23.40
2019-02-28T11:19:40.390Z,23.37
2019-02-28T11:22:09.843Z,24.23
2019-02-28T11:24:39.226Z,23.07
2019-02-28T11:27:08.692Z,24.10
2019-02-28T11:29:38.260Z,23.07
2019-02-28T11:32:11.496Z,23.30
2019-02-28T11:34:41.335Z,22.93
2019-02-28T11:37:12.713Z,22.33
2019-02-28T11:39:41.721Z,22.73
2019-02-28T11:42:11.031Z,22.83
2019-02-28T11:44:40.386Z,23.83
2019-02-28T11:47:11.216Z,23.20
2019-02-28T11:49:41.068Z,21.13
2019-02-28T11:52:10.621Z,22.73
2019-02-28T11:54:39.848Z,21.07
2019-02-28T11:57:10.053Z,22.70
2019-02-28T11:59:39.401Z,21.07
2019-02-28T12:02:08.787Z,22.97
2019-02-28T12:04:40.453Z,22.03
2019-02-28T12:07:09.378Z,22.90
2019-02-28T12:09:38.871Z,20.90
2019-02-28T12:12:10.443Z,21.83
2019-02-28T12:14:39.390Z,21.27
2019-02-28T12:17:08.890Z,21.03
2019-02-28T12:19:38.423Z,21.00
2019-02-28T12:22:09.166Z,21.23
2019-02-28T12:24:44.127Z,20.00
2019-02-28T12:27:13.602Z,21.73
2019-02-28T12:29:45.575Z,21.40
2019-02-28T12:32:14.072Z,21.30
2019-02-28T12:34:43.581Z,20.40
2019-02-28T12:37:13.056Z,20.60
2019-02-28T12:39:43.836Z,19.83
2019-02-28T12:42:13.112Z,20.37
2019-02-28T12:44:42.604Z,20.20
2019-02-28T12:47:12.211Z,20.20
2019-02-28T12:49:41.662Z,19.83
2019-02-28T12:52:11.333Z,20.77
2019-02-28T12:54:42.228Z,20.23
2019-02-28T12:57:11.603Z,20.80
2019-02-28T12:59:41.902Z,20.30
2019-02-28T13:02:12.222Z,19.93
2019-02-28T13:04:41.700Z,20.87
2019-02-28T13:07:11.056Z,19.13
2019-02-28T13:09:40.448Z,21.03
2019-02-28T13:12:11.988Z,20.40
2019-02-28T13:14:41.836Z,21.83
2019-02-28T13:17:11.290Z,19.60
2019-02-28T13:19:40.759Z,19.83
2019-02-28T13:22:10.104Z,21.50
2019-02-28T13:24:42.397Z,21.73
2019-02-28T13:27:11.626Z,22.70
2019-02-28T13:29:41.131Z,21.87
2019-02-28T13:32:10.372Z,22.23
2019-02-28T13:34:39.869Z,21.70
2019-02-28T13:37:09.417Z,23.80
2019-02-28T13:39:38.947Z,24.00
2019-02-28T13:42:08.410Z,24.73
2019-02-28T13:44:37.920Z,23.97
2019-02-28T13:47:09.684Z,24.50
2019-02-28T13:49:38.614Z,24.47
2019-02-28T13:52:08.143Z,24.13
2019-02-28T13:54:38.091Z,26.23
2019-02-28T13:57:10.039Z,25.97
2019-02-28T13:59:39.616Z,26.30
2019-02-28T14:02:08.938Z,25.10
2019-02-28T14:04:38.446Z,27.57
2019-02-28T14:07:07.905Z,28.07
2019-02-28T14:09:38.080Z,27.43
2019-02-28T14:12:08.656Z,26.50
2019-02-28T14:14:38.878Z,29.23
2019-02-28T14:17:09.252Z,27.37
2019-02-28T14:19:38.821Z,28.67
2019-02-28T14:22:08.558Z,26.50
2019-02-28T14:24:39.322Z,25.97
2019-02-28T14:27:08.685Z,27.97
2019-02-28T14:29:37.946Z,27.00
2019-02-28T14:32:08.169Z,27.23
2019-02-28T14:34:37.857Z,25.60
2019-02-28T14:37:07.341Z,27.80
2019-02-28T14:39:39.720Z,26.17
2019-02-28T14:42:08.131Z,26.33
2019-02-28T14:44:37.483Z,28.47
2019-02-28T14:47:06.855Z,28.80
2019-02-28T14:49:36.287Z,28.03
2019-02-28T14:52:05.616Z,28.03
2019-02-28T14:54:35.114Z,27.47
2019-02-28T14:57:04.627Z,29.73
2019-02-28T14:59:34.145Z,29.77
2019-02-28T15:02:03.648Z,29.50
2019-02-28T15:04:33.233Z,28.27
2019-02-28T15:07:04.113Z,30.50
2019-02-28T15:09:34.026Z,31.60
2019-02-28T15:12:03.507Z,31.57
2019-02-28T15:14:40.629Z,31.77
2019-02-28T15:17:09.248Z,32.50
2019-02-28T15:19:38.569Z,30.63
2019-02-28T15:22:08.470Z,29.33
2019-02-28T15:24:40.495Z,31.67
2019-02-28T15:27:08.665Z,31.70
2019-02-28T15:29:37.941Z,30.23
2019-02-28T15:32:07.362Z,29.70
2019-02-28T15:34:37.424Z,29.70
2019-02-28T15:37:08.567Z,33.17
2019-02-28T15:39:37.855Z,28.73
2019-02-28T15:42:08.214Z,29.70
2019-02-28T15:44:38.518Z,31.87
2019-02-28T15:47:08.425Z,28.20
2019-02-28T15:49:37.749Z,29.20
2019-02-28T15:52:07.238Z,29.27
2019-02-28T15:54:36.556Z,29.20
2019-02-28T15:57:06.098Z,28.50
2019-02-28T15:59:35.604Z,28.70
2019-02-28T16:02:06.304Z,27.60
2019-02-28T16:04:36.375Z,29.50
2019-02-28T16:07:05.845Z,27.73
2019-02-28T16:09:35.329Z,28.80
2019-02-28T16:12:04.790Z,28.80
2019-02-28T16:14:34.809Z,29.70
2019-02-28T16:17:04.971Z,28.37
2019-02-28T16:19:34.261Z,26.70
2019-02-28T16:22:03.598Z,27.70
2019-02-28T16:24:33.127Z,26.07
2019-02-28T16:27:02.652Z,28.60
2019-02-28T16:29:32.143Z,25.93
2019-02-28T16:32:01.577Z,27.90
2019-02-28T16:34:31.078Z,26.70
2019-02-28T16:37:00.972Z,26.43
2019-02-28T16:39:31.571Z,26.40
2019-02-28T16:42:01.053Z,25.83
2019-02-28T16:44:30.886Z,26.47
2019-02-28T16:47:01.346Z,26.90
2019-02-28T16:49:30.776Z,24.30
2019-02-28T16:52:02.559Z,25.40
2019-02-28T16:54:31.453Z,25.27
2019-02-28T16:57:00.920Z,23.67
2019-02-28T16:59:31.712Z,25.10
2019-02-28T17:02:01.368Z,22.40
2019-02-28T17:04:30.615Z,21.33
2019-02-28T17:06:59.991Z,23.20
2019-02-28T17:09:37.061Z,21.67
2019-02-28T17:12:15.477Z,22.00
2019-02-28T17:14:48.353Z,20.67
2019-02-28T17:17:25.944Z,22.17
2019-02-28T17:19:55.523Z,22.07
2019-02-28T17:22:26.914Z,20.23
2019-02-28T17:24:55.827Z,20.03
2019-02-28T17:27:38.707Z,19.93
2019-02-28T17:30:27.693Z,20.03
2019-02-28T17:32:57.102Z,19.60
2019-02-28T17:35:26.543Z,19.10
2019-02-28T17:37:59.883Z,18.57
2019-02-28T17:40:27.085Z,17.30
2019-02-28T17:42:56.600Z,17.40
2019-02-28T17:45:28.868Z,18.27
2019-02-28T17:48:52.386Z,17.40
2019-02-28T17:51:55.508Z,16.60
2019-02-28T17:55:02.007Z,16.10
2019-02-28T17:58:20.974Z,16.50
2019-02-28T18:01:28.751Z,15.07
2019-02-28T18:05:06.262Z,15.10
2019-02-28T18:08:10.606Z,14.40
2019-02-28T18:11:30.895Z,14.23
2019-02-28T18:14:27.782Z,14.23
2019-02-28T18:17:33.410Z,13.97
2019-02-28T18:20:37.582Z,12.93
2019-02-28T18:24:00.186Z,12.83
2019-02-28T18:27:21.977Z,12.90
2019-02-28T18:30:46.338Z,12.30
2019-02-28T18:33:15.607Z,11.33
2019-02-28T18:35:45.013Z,12.30
2019-02-28T18:38:15.513Z,12.27
2019-02-28T18:40:44.841Z,11.73
2019-02-28T18:43:14.269Z,11.83
2019-02-28T18:45:43.697Z,11.03
2019-02-28T18:48:14.579Z,11.90
2019-02-28T18:50:44.316Z,10.73
2019-02-28T18:53:13.883Z,10.83
2019-02-28T18:55:43.350Z,10.53
2019-02-28T18:58:12.956Z,10.00
2019-02-28T19:00:42.330Z,10.03
2019-02-28T19:03:12.682Z,9.73
2019-02-28T19:05:41.954Z,11.40
2019-02-28T19:08:11.431Z,9.83
2019-02-28T19:10:40.733Z,10.63
2019-02-28T19:13:10.118Z,8.47
2019-02-28T19:15:39.553Z,8.73
2019-02-28T19:18:09.531Z,8.33
2019-02-28T19:20:38.986Z,9.60
2019-02-28T19:23:08.320Z,8.20
2019-02-28T19:25:38.451Z,8.77
2019-02-28T19:28:07.938Z,8.40
2019-02-28T19:30:37.454Z,7.83
2019-02-28T19:33:06.959Z,8.70
2019-02-28T19:35:36.378Z,8.10
2019-02-28T19:38:05.789Z,7.90
2019-02-28T19:40:35.267Z,8.60
2019-02-28T19:43:04.748Z,7.20
2019-02-28T19:45:34.382Z,7.83
2019-02-28T19:48:03.766Z,7.97
2019-02-28T19:50:33.231Z,7.67
2019-02-28T19:53:02.649Z,7.07
2019-02-28T19:55:32.512Z,7.00
2019-02-28T19:58:01.978Z,7.20
2019-02-28T20:00:31.299Z,7.57
2019-02-28T20:03:00.794Z,7.23
2019-02-28T20:05:30.633Z,7.07
2019-02-28T20:08:00.085Z,7.20
2019-02-28T20:10:29.464Z,6.40
2019-02-28T20:12:59.046Z,7.33
2019-02-28T20:15:29.814Z,6.37
2019-02-28T20:17:59.401Z,6.10
2019-02-28T20:20:32.488Z,6.57
2019-02-28T20:23:01.869Z,7.40
2019-02-28T20:25:31.789Z,5.43
2019-02-28T20:28:01.129Z,6.10
2019-02-28T20:30:30.446Z,5.60
2019-02-28T20:32:59.689Z,6.10
2019-02-28T20:35:28.991Z,5.90
2019-02-28T20:37:58.272Z,5.90
2019-02-28T20:40:27.734Z,6.20
2019-02-28T20:42:57.090Z,4.90
2019-02-28T20:45:26.478Z,6.03
2019-02-28T20:47:57.430Z,5.90
2019-02-28T20:50:29.986Z,6.07
2019-02-28T20:52:59.941Z,5.90
2019-02-28T20:55:29.347Z,5.43
2019-02-28T20:57:58.659Z,5.33
2019-02-28T21:00:28.345Z,5.90
2019-02-28T21:02:57.766Z,5.50
2019-02-28T21:05:27.166Z,6.10
2019-02-28T21:07:56.753Z,5.30
2019-02-28T21:10:26.445Z,5.37
2019-02-28T21:12:56.035Z,5.53
2019-02-28T21:15:25.459Z,5.50
2019-02-28T21:17:54.945Z,5.10
2019-02-28T21:20:24.264Z,5.77
2019-02-28T21:22:53.722Z,4.83
2019-02-28T21:25:23.121Z,5.53
2019-02-28T21:27:52.532Z,4.53
2019-02-28T21:30:22.369Z,5.13
2019-02-28T21:32:51.589Z,5.47
2019-02-28T21:35:20.898Z,4.97
2019-02-28T21:37:50.462Z,5.50
2019-02-28T21:40:19.905Z,4.60
2019-02-28T21:42:49.408Z,5.27
2019-02-28T21:45:19.493Z,4.70
2019-02-28T21:47:48.818Z,5.10
2019-02-28T21:50:18.478Z,5.00
2019-02-28T21:52:47.812Z,5.50
2019-02-28T21:55:17.117Z,5.20
2019-02-28T21:57:47.045Z,4.73
2019-02-28T22:00:21.995Z,4.80
2019-02-28T22:02:51.274Z,4.63
2019-02-28T22:05:20.732Z,5.10
2019-02-28T22:07:50.245Z,4.50
2019-02-28T22:10:19.674Z,5.23
2019-02-28T22:12:48.954Z,4.90
2019-02-28T22:15:18.651Z,5.50
2019-02-28T22:17:48.248Z,5.07
2019-02-28T22:20:17.755Z,6.00
2019-02-28T22:22:47.312Z,5.07
2019-02-28T22:25:16.832Z,4.93
2019-02-28T22:27:46.267Z,4.50
2019-02-28T22:30:37.535Z,5.10
2019-02-28T22:33:09.515Z,5.10
2019-02-28T22:35:42.320Z,4.70
2019-02-28T22:38:11.690Z,3.90
2019-02-28T22:40:41.084Z,4.87
2019-02-28T22:43:10.541Z,4.80
2019-02-28T22:45:39.988Z,4.40
2019-02-28T22:48:09.439Z,4.70
2019-02-28T22:50:38.879Z,4.27
2019-02-28T22:53:08.423Z,4.47
2019-02-28T22:55:37.726Z,4.60
2019-02-28T22:58:09.281Z,4.90
2019-02-28T23:01:02.932Z,5.00
2019-02-28T23:03:33.095Z,4.10
2019-02-28T23:06:02.396Z,4.20
2019-02-28T23:08:31.752Z,4.30
2019-02-28T23:11:01.005Z,4.73
2019-02-28T23:13:30.341Z,4.47
2019-02-28T23:16:00.438Z,4.40
2019-02-28T23:18:29.921Z,4.40
2019-02-28T23:20:59.308Z,4.90
2019-02-28T23:23:28.838Z,4.50
2019-02-28T23:26:11.619Z,4.60
2019-02-28T23:28:53.465Z,4.63
2019-02-28T23:31:58.849Z,5.50
2019-02-28T23:34:40.843Z,4.50
2019-02-28T23:37:10.374Z,5.40
2019-02-28T23:39:39.843Z,4.70
2019-02-28T23:42:09.253Z,5.13
2019-02-28T23:44:38.648Z,5.20
2019-02-28T23:47:09.378Z,4.80
2019-02-28T23:49:38.888Z,5.10
2019-02-28T23:52:08.547Z,5.27
2019-02-28T23:54:38.056Z,4.70
2019-02-28T23:57:08.526Z,4.80
2019-02-28T23:59:37.874Z,5.00
